Flight Track Log - Related Links

Times and Time Zones

All times are in EDT time to prevent confusion due to time zone crossing. See the 9Y-BGI flight status page for this flight to view local times or setup timezone preferences in your user account.

Time Position Orientation Groundspeed Altitude Reporting Facility
EDT Latitude Longitude Course Direction KTS MPH feet Rate Location/Type
Thu 04:15:15 PM 24.9569 -77.4019 175° South 440 506 4,200  Level Miami Center
Thu 04:16:15 PM 24.8881 -77.4317 201° Southwest 340 391 7,300 3,000 Climbing Miami Center
Thu 04:17:15 PM 24.8064 -77.4336 181° South 319 367 10,200 2,000 Climbing Miami Center
Thu 04:18:15 PM 24.7144 -77.4283 177° South 313 360 11,300 1,900 Climbing Miami Center
Thu 04:19:15 PM 24.6058 -77.4233 178° South 352 405 14,000 2,650 Climbing Miami Center
Thu 04:20:00 PM 24.5395 -77.4089 175° South  Level FlightAware Approximate
Thu 04:20:15 PM 24.4992 -77.4139 175° South 378 435 16,600  Level Miami Center
Thu 04:21:15 PM 24.3844 -77.4086 178° South 402 463 19,000 2,150 Climbing Miami Center
Thu 04:22:15 PM 24.2631 -77.4014 177° South 422 486 20,900 2,100 Climbing Miami Center
Thu 04:23:15 PM 24.1272 -77.3939 177° South 433 498 23,200 2,150 Climbing Miami Center
Thu 04:24:15 PM 24.0000 -77.3889 178° South 447 514 25,200 1,900 Climbing Miami Center
Thu 04:25:15 PM 23.8661 -77.3792 176° South 463 533 27,000 1,700 Climbing Miami Center
Thu 04:26:15 PM 23.7283 -77.3697 176° South 481 554 28,600 1,950 Climbing Miami Center
Thu 04:27:15 PM 23.6092 -77.3644 178° South 488 562 30,900 2,300 Climbing Miami Center
Thu 04:29:00 PM 23.4032 -77.3403 175° South  Level FlightAware Approximate
Thu 04:36:00 PM 22.5801 -77.2716 176° South  Level FlightAware Approximate
Thu 04:37:00 PM 22.4624 -77.2626 176° South  Level FlightAware Approximate
Thu 04:38:00 PM 22.3448 -77.2536 176° South  Level FlightAware Approximate
Thu 04:39:00 PM 22.2271 -77.2446 176° South  Level FlightAware Approximate
Thu 04:40:00 PM 22.1095 -77.2357 176° South  Level FlightAware Approximate
Thu 04:41:00 PM 21.9918 -77.2268 176° South  Level FlightAware Approximate
Thu 04:42:00 PM 21.8742 -77.2178 176° South  Level FlightAware Approximate
Thu 04:43:00 PM 21.7565 -77.2089 176° South  Level FlightAware Approximate
Thu 04:44:00 PM 21.6389 -77.2000 176° South  Level FlightAware Approximate
Thu 04:45:00 PM 21.5212 -77.1912 176° South  Level FlightAware Approximate
Thu 04:46:00 PM 21.4036 -77.1823 176° South  Level FlightAware Approximate
Thu 04:47:00 PM 21.2859 -77.1734 176° South  Level FlightAware Approximate
Thu 04:48:00 PM 21.1682 -77.1646 176° South  Level FlightAware Approximate
Thu 04:49:00 PM 21.0506 -77.1558 176° South  Level FlightAware Approximate
Thu 04:50:00 PM 20.9329 -77.1470 176° South  Level FlightAware Approximate
Thu 04:51:00 PM 20.8153 -77.1382 176° South  Level FlightAware Approximate
Thu 04:52:00 PM 20.6976 -77.1294 176° South  Level FlightAware Approximate
Thu 04:53:00 PM 20.5800 -77.1207 176° South  Level FlightAware Approximate
Thu 04:54:00 PM 20.4623 -77.1120 176° South  Level FlightAware Approximate
Thu 04:55:00 PM 20.3446 -77.1033 176° South  Level FlightAware Approximate
Thu 04:56:00 PM 20.2290 -77.1188 205° Southwest  Level FlightAware Approximate
Thu 04:57:00 PM 20.1223 -77.1722 205° Southwest  Level FlightAware Approximate
Thu 04:58:00 PM 20.0139 -77.2216 203° Southwest  Level FlightAware Approximate
Thu 04:59:00 PM 19.9049 -77.2697 202° Southwest  Level FlightAware Approximate
Thu 05:00:00 PM 19.7959 -77.3175 202° Southwest  Level FlightAware Approximate
Thu 05:01:00 PM 19.6868 -77.3652 202° Southwest  Level FlightAware Approximate
Thu 05:02:00 PM 19.5800 -77.4184 205° Southwest  Level FlightAware Approximate
Thu 05:03:00 PM 19.4731 -77.4711 202° Southwest  Level FlightAware Approximate
Thu 05:04:00 PM 19.3641 -77.5189 202° Southwest  Level FlightAware Approximate
Thu 05:05:00 PM 19.2551 -77.5666 202° Southwest  Level FlightAware Approximate
Thu 05:06:00 PM 19.1462 -77.6146 203° Southwest  Level FlightAware Approximate
Thu 05:07:00 PM 19.0381 -77.6643 205° Southwest  Level FlightAware Approximate
Thu 05:08:00 PM 18.9314 -77.7176 205° Southwest  Level FlightAware Approximate
Thu 05:09:00 PM 18.8240 -77.7690 203° Southwest  Level FlightAware Approximate
Thu 05:10:00 PM 18.7152 -77.8171 198° South  Level FlightAware Approximate
Thu 05:11:00 PM 18.6061 -77.8636 205° Southwest  Level FlightAware Approximate
Thu 05:12:00 PM 18.5000 -77.9161 90° East  Level FlightAware Approximate
Thu 05:13:00 PM 18.5037 -77.9134 90° East  Level Estimated
Thu 05:14:00 PM 18.5037 -77.9134 90° East  Level Estimated
Thu 05:15:00 PM 18.5037 -77.9134 90° East  Level Estimated
Thu 05:16:00 PM 18.5037 -77.9134 90° East  Level Estimated
Thu 05:17:00 PM 18.5037 -77.9134 90° East  Level Estimated
Thu 05:18:00 PM 18.5037 -77.9134 90° East  Level Estimated
Thu 05:19:00 PM 18.5037 -77.9134 90° East  Level Estimated
Thu 05:20:00 PM 18.5037 -77.9134 90° East  Level Estimated
Thu 05:21:00 PM 18.5037 -77.9134 90° East  Level Estimated

Login

Don't have an account? Register now (free) for customized features, flight alerts, and more!